Time;durP1;ratioP1;P1;durP2;ratioP2;P2;SDS_P1;SDS_P2;PMS_P1;PMS_P2;Temp;Humidity;BMP_temperature;BMP_pressure;BME280_temperature;BME280_humidity;BME280_pressure;Samples;Min_cycle;Max_cycle;Signal;HPM_P1;HPM_P2
2021/01/15 00:01:23;;;;;;;42.97;24.38;;;0.40;70.30;;;;;;4966893;28;84475;-74
2021/01/15 00:03:50;;;;;;;38.42;23.10;;;0.30;70.30;;;;;;4988613;28;82784;-77
2021/01/15 00:06:26;;;;;;;46.25;25.38;;;0.30;70.20;;;;;;4990861;28;84860;-75
2021/01/15 00:08:53;;;;;;;42.38;23.95;;;0.30;70.40;;;;;;4977581;28;82622;-75
2021/01/15 00:11:24;;;;;;;42.63;24.20;;;0.30;70.60;;;;;;4958231;28;83146;-74
2021/01/15 00:13:52;;;;;;;48.08;24.77;;;0.30;70.60;;;;;;4991840;28;82575;-73
2021/01/15 00:16:26;;;;;;;46.85;23.83;;;0.40;70.60;;;;;;4974287;28;82812;-74
2021/01/15 00:18:56;;;;;;;47.27;26.97;;;0.40;70.60;;;;;;4990386;28;83258;-74
2021/01/15 00:21:29;;;;;;;44.15;23.75;;;0.40;70.60;;;;;;4975657;28;83106;-74
2021/01/15 00:23:57;;;;;;;48.78;24.23;;;0.40;70.50;;;;;;4972758;28;83879;-74
2021/01/15 00:26:25;;;;;;;41.67;24.07;;;0.40;70.50;;;;;;4973221;28;82989;-73
2021/01/15 00:28:52;;;;;;;45.58;24.42;;;0.40;70.30;;;;;;4973522;28;83474;-75
2021/01/15 00:31:20;;;;;;;39.27;24.03;;;0.40;70.40;;;;;;4992290;28;83629;-74
2021/01/15 00:33:47;;;;;;;41.20;24.33;;;0.30;70.50;;;;;;4992260;28;83464;-73
2021/01/15 00:36:13;;;;;;;46.78;23.45;;;0.20;70.70;;;;;;4974918;28;82731;-72
2021/01/15 00:38:39;;;;;;;47.73;26.40;;;0.20;70.80;;;;;;4995661;28;85454;-73
2021/01/15 00:41:08;;;;;;;45.10;23.38;;;0.20;70.80;;;;;;4961697;28;82720;-72
2021/01/15 00:43:35;;;;;;;38.97;22.93;;;0.10;71.00;;;;;;4976377;28;83501;-73
2021/01/15 00:46:01;;;;;;;44.67;22.73;;;0.20;70.90;;;;;;4975584;28;83452;-72
2021/01/15 00:48:27;;;;;;;39.88;21.55;;;0.20;70.80;;;;;;4993949;28;83191;-73
2021/01/15 00:50:53;;;;;;;40.63;22.63;;;0.10;70.80;;;;;;4974861;28;84125;-74
2021/01/15 00:53:19;;;;;;;38.20;20.67;;;0.10;70.60;;;;;;4974265;28;83330;-74
2021/01/15 00:55:45;;;;;;;39.97;22.30;;;0.10;70.60;;;;;;4993903;28;82870;-74
2021/01/15 00:58:15;;;;;;;36.50;20.67;;;0.10;70.50;;;;;;4991078;28;83648;-74
2021/01/15 01:00:41;;;;;;;35.87;21.50;;;0.10;70.50;;;;;;4991737;28;83272;-73
2021/01/15 01:03:07;;;;;;;37.72;22.02;;;0.00;70.40;;;;;;4973807;28;85800;-76
2021/01/15 01:05:34;;;;;;;36.23;20.30;;;0.00;70.50;;;;;;4988896;28;83468;-75
2021/01/15 01:08:00;;;;;;;37.45;21.45;;;0.00;70.40;;;;;;4970105;28;82575;-76
2021/01/15 01:10:26;;;;;;;34.50;20.80;;;-3276.70;70.40;;;;;;4969493;28;83135;-75
2021/01/15 01:12:52;;;;;;;43.33;21.70;;;-3276.70;70.30;;;;;;4970710;28;83898;-76
2021/01/15 01:15:18;;;;;;;35.00;19.40;;;-3276.50;70.40;;;;;;4971723;28;82696;-74
2021/01/15 01:17:44;;;;;;;43.73;22.47;;;-3276.50;70.40;;;;;;4971616;28;85198;-74
2021/01/15 01:20:12;;;;;;;39.33;21.70;;;-3276.40;70.50;;;;;;4955574;28;83557;-74
2021/01/15 01:22:38;;;;;;;39.67;20.90;;;-3276.30;70.60;;;;;;4972181;28;83503;-75
2021/01/15 01:25:06;;;;;;;35.33;19.87;;;-3276.20;70.50;;;;;;4971687;28;82945;-75
2021/01/15 01:27:32;;;;;;;35.70;20.43;;;-3276.00;70.90;;;;;;4971801;28;83835;-74
2021/01/15 01:29:59;;;;;;;37.57;20.50;;;-3275.90;71.20;;;;;;4971043;28;85328;-75
2021/01/15 01:32:26;;;;;;;39.07;20.43;;;-3275.90;71.30;;;;;;4971934;28;84485;-76
2021/01/15 01:34:52;;;;;;;42.33;22.50;;;-3275.90;71.30;;;;;;4972488;28;82794;-76
2021/01/15 01:37:18;;;;;;;34.93;19.47;;;-3276.00;71.40;;;;;;4972196;28;82584;-76
2021/01/15 01:39:44;;;;;;;35.73;21.10;;;-3276.00;71.30;;;;;;4970771;28;83514;-77
2021/01/15 01:42:10;;;;;;;39.47;20.60;;;-3276.10;71.20;;;;;;4972616;28;83652;-76
2021/01/15 01:44:40;;;;;;;36.47;20.07;;;-3276.10;71.20;;;;;;4971003;28;82692;-77
2021/01/15 01:47:06;;;;;;;38.40;22.27;;;-3276.20;71.00;;;;;;4994201;28;82662;-76
2021/01/15 01:49:33;;;;;;;36.90;19.03;;;-3276.20;70.90;;;;;;4974628;28;85968;-76
2021/01/15 01:52:03;;;;;;;36.83;20.33;;;-3276.10;70.80;;;;;;4973584;28;84658;-75
2021/01/15 01:54:35;;;;;;;35.43;19.77;;;-3276.10;70.90;;;;;;4974029;28;84471;-75
2021/01/15 01:57:08;;;;;;;27.77;16.33;;;-3276.20;70.90;;;;;;4957192;28;83918;-75
2021/01/15 01:59:36;;;;;;;42.00;20.98;;;-3276.20;71.00;;;;;;4972111;28;82599;-75
2021/01/15 02:02:03;;;;;;;38.73;22.47;;;-3276.20;71.00;;;;;;4970110;28;85426;-75
2021/01/15 02:04:31;;;;;;;39.63;21.80;;;-3276.10;70.80;;;;;;4988007;28;82385;-74
2021/01/15 02:06:58;;;;;;;40.30;21.77;;;-3276.10;70.70;;;;;;4969719;28;83388;-77
2021/01/15 02:09:33;;;;;;;38.10;19.83;;;-3276.10;70.70;;;;;;4969831;28;83505;-76
2021/01/15 02:12:05;;;;;;;39.00;21.70;;;-3276.00;70.80;;;;;;4987943;28;82489;-76
2021/01/15 02:14:49;;;;;;;35.10;21.20;;;-3276.00;70.80;;;;;;4969660;28;83453;-76
2021/01/15 02:17:19;;;;;;;45.30;21.23;;;-3276.00;70.80;;;;;;4988884;28;83818;-78
2021/01/15 02:20:07;;;;;;;37.40;20.33;;;-3276.00;70.80;;;;;;4971559;28;83402;-76
2021/01/15 02:23:13;;;;;;;39.70;20.80;;;-3276.00;70.80;;;;;;4970180;28;83914;-75
2021/01/15 02:26:16;;;;;;;37.77;19.27;;;-3276.00;70.90;;;;;;4962807;28;83463;-74
2021/01/15 02:28:57;;;;;;;30.85;16.85;;;-3276.00;70.90;;;;;;4978836;28;83868;-76
2021/01/15 02:32:09;;;;;;;36.43;19.43;;;-3275.90;70.90;;;;;;4982465;28;85653;-75
2021/01/15 02:35:00;;;;;;;37.67;20.10;;;-3275.90;70.80;;;;;;4979259;28;82337;-75
2021/01/15 02:37:57;;;;;;;36.47;19.40;;;-3275.80;71.10;;;;;;4988947;28;82428;-75
2021/01/15 02:40:45;;;;;;;39.20;21.47;;;-3275.80;71.10;;;;;;4973518;28;82734;-74
2021/01/15 02:43:13;;;;;;;36.60;21.43;;;-3275.70;71.20;;;;;;4979666;28;83542;-75
2021/01/15 02:45:40;;;;;;;35.37;20.73;;;-3275.70;71.20;;;;;;4975420;28;84802;-74
2021/01/15 02:48:14;;;;;;;34.10;19.33;;;-3275.80;71.30;;;;;;4992203;28;83992;-75
2021/01/15 02:50:40;;;;;;;33.77;19.60;;;-3275.80;71.20;;;;;;4996526;28;82483;-74
2021/01/15 02:53:08;;;;;;;40.63;21.33;;;-3275.80;71.30;;;;;;4985534;28;82721;-75
2021/01/15 02:55:36;;;;;;;41.17;21.07;;;-3275.80;71.50;;;;;;5000342;28;83311;-75
2021/01/15 02:58:02;;;;;;;37.03;20.90;;;-3275.80;71.60;;;;;;4975348;28;83012;-74
2021/01/15 03:00:28;;;;;;;36.80;20.27;;;-3275.80;71.60;;;;;;4972331;28;83622;-74
2021/01/15 03:03:12;;;;;;;43.07;21.73;;;-3275.80;71.60;;;;;;4955857;28;83147;-74
2021/01/15 03:05:42;;;;;;;43.57;21.70;;;-3275.80;72.00;;;;;;4970908;28;83419;-75
2021/01/15 03:08:09;;;;;;;37.13;20.90;;;-3275.80;71.80;;;;;;4972429;28;83073;-74
2021/01/15 03:10:39;;;;;;;39.53;20.73;;;-3275.80;71.90;;;;;;4967093;28;82876;-75
2021/01/15 03:13:07;;;;;;;38.83;20.83;;;-3275.80;71.90;;;;;;4980365;28;84035;-74
2021/01/15 03:15:36;;;;;;;35.50;20.73;;;-3275.90;71.80;;;;;;4985186;28;82755;-74
2021/01/15 03:18:04;;;;;;;39.70;20.77;;;-3275.80;72.00;;;;;;4973302;28;82568;-74
2021/01/15 03:20:30;;;;;;;41.20;20.83;;;-3275.80;72.00;;;;;;4994743;28;83319;-74
2021/01/15 03:22:58;;;;;;;42.60;20.97;;;-3275.80;71.80;;;;;;4995240;28;83507;-74
2021/01/15 03:25:25;;;;;;;41.50;21.00;;;-3275.90;71.80;;;;;;4996872;28;82667;-75
2021/01/15 03:27:55;;;;;;;36.77;21.63;;;-3275.90;71.80;;;;;;4995080;28;83120;-76
2021/01/15 03:30:24;;;;;;;39.27;20.33;;;-3275.90;71.80;;;;;;4976934;28;83678;-75
2021/01/15 03:32:54;;;;;;;36.47;18.93;;;-3275.90;71.90;;;;;;4992654;28;83560;-75
2021/01/15 03:35:25;;;;;;;34.53;18.87;;;-3275.80;71.80;;;;;;4957786;28;86510;-75
2021/01/15 03:38:01;;;;;;;35.50;19.20;;;-3275.80;71.80;;;;;;4992775;28;85570;-75
2021/01/15 03:40:55;;;;;;;41.23;21.50;;;-3275.80;71.60;;;;;;4991245;28;83627;-74
2021/01/15 03:43:23;;;;;;;39.73;20.53;;;-3275.70;71.30;;;;;;4992680;28;82846;-74
2021/01/15 03:45:50;;;;;;;37.90;21.07;;;-3275.50;71.30;;;;;;4990831;28;83727;-74
2021/01/15 03:48:18;;;;;;;46.90;21.10;;;-3275.40;71.40;;;;;;4990042;28;85006;-74
2021/01/15 03:50:47;;;;;;;37.43;21.40;;;-3275.40;71.20;;;;;;4990227;28;82623;-74
2021/01/15 03:53:14;;;;;;;38.50;20.67;;;-3275.40;71.30;;;;;;4988390;28;83338;-74
2021/01/15 03:55:41;;;;;;;40.83;21.03;;;-3275.40;71.20;;;;;;4972792;28;82755;-76
2021/01/15 03:58:06;;;;;;;38.10;21.60;;;-3275.40;71.10;;;;;;4991106;28;83439;-76
2021/01/15 04:00:33;;;;;;;38.33;19.80;;;-3275.30;71.10;;;;;;4993491;28;82535;-76
2021/01/15 04:02:58;;;;;;;37.33;19.87;;;-3275.30;71.10;;;;;;4992990;28;85878;-74
2021/01/15 04:05:24;;;;;;;40.33;22.10;;;-3275.30;71.00;;;;;;5002797;28;84478;-75
2021/01/15 04:07:50;;;;;;;40.23;21.20;;;-3275.30;70.90;;;;;;5004732;28;83459;-75
2021/01/15 04:10:19;;;;;;;38.33;21.10;;;-3275.30;71.10;;;;;;5004402;28;82704;-75
2021/01/15 04:12:45;;;;;;;38.87;19.50;;;-3275.30;71.20;;;;;;4995114;28;82548;-75
2021/01/15 04:15:15;;;;;;;34.90;19.20;;;-3275.20;71.30;;;;;;4990639;28;84017;-73
2021/01/15 04:17:42;;;;;;;33.40;19.60;;;-3275.20;71.40;;;;;;4994580;28;82454;-74
2021/01/15 04:20:11;;;;;;;39.03;21.57;;;-3275.20;71.50;;;;;;4995375;28;83841;-74
2021/01/15 04:22:44;;;;;;;42.00;22.60;;;-3275.20;71.80;;;;;;4992942;28;83497;-74
2021/01/15 04:25:11;;;;;;;36.25;20.38;;;-3275.30;71.80;;;;;;4992530;28;83701;-74
2021/01/15 04:27:38;;;;;;;34.23;20.47;;;-3275.30;71.80;;;;;;4973890;28;84606;-72
2021/01/15 04:30:09;;;;;;;39.70;22.40;;;-3275.30;71.80;;;;;;4988164;28;82747;-73
2021/01/15 04:32:35;;;;;;;35.63;19.47;;;-3275.40;71.70;;;;;;4987269;28;82748;-73
2021/01/15 04:35:08;;;;;;;36.37;20.17;;;-3275.30;71.70;;;;;;4991693;28;85230;-73
2021/01/15 04:37:36;;;;;;;39.88;20.08;;;-3275.30;71.80;;;;;;4979107;28;82796;-73
2021/01/15 04:40:04;;;;;;;36.60;19.57;;;-3275.30;71.70;;;;;;4994927;28;83823;-73
2021/01/15 04:42:37;;;;;;;40.70;22.23;;;-3275.30;71.60;;;;;;4986890;28;83787;-74
2021/01/15 04:45:05;;;;;;;39.92;20.00;;;-3275.30;71.50;;;;;;4976352;28;84779;-73
2021/01/15 04:47:31;;;;;;;39.70;20.20;;;-3275.30;71.40;;;;;;4992321;28;83237;-73
2021/01/15 04:49:57;;;;;;;37.47;18.87;;;-3275.30;71.40;;;;;;4990372;28;83346;-73
2021/01/15 04:52:23;;;;;;;41.03;19.43;;;-3275.20;71.20;;;;;;4993423;28;84153;-74
2021/01/15 04:54:59;;;;;;;29.47;17.60;;;-3275.20;71.20;;;;;;4995272;28;83842;-73
2021/01/15 04:57:30;;;;;;;33.47;18.33;;;-3275.20;71.00;;;;;;5000047;28;83536;-74
2021/01/15 05:00:03;;;;;;;32.57;17.90;;;-3275.10;71.10;;;;;;4987942;28;83775;-74
2021/01/15 05:02:33;;;;;;;;;;;-3275.10;71.00;;;;;;4987633;28;85344;-74
2021/01/15 05:05:02;;;;;;;32.23;17.57;;;-3274.90;70.80;;;;;;5000460;28;76501;-74
2021/01/15 05:07:30;;;;;;;31.13;17.13;;;-3274.80;71.20;;;;;;4994030;28;82850;-73
2021/01/15 05:09:57;;;;;;;31.47;16.47;;;-3274.80;71.40;;;;;;4993635;28;84151;-74
2021/01/15 05:12:29;;;;;;;30.20;17.57;;;-3274.80;71.40;;;;;;4978360;28;83596;-75
2021/01/15 05:14:56;;;;;;;35.30;18.20;;;-3274.80;71.50;;;;;;4993661;28;83572;-75
2021/01/15 05:17:26;;;;;;;30.10;16.70;;;-3274.80;71.40;;;;;;4975571;28;83327;-75
2021/01/15 05:19:55;;;;;;;31.93;17.60;;;-3274.70;71.40;;;;;;4992169;28;83358;-75
2021/01/15 05:22:21;;;;;;;32.67;17.07;;;-3274.70;71.10;;;;;;4973182;28;85496;-75
2021/01/15 05:24:47;;;;;;;36.70;17.77;;;-3274.60;71.00;;;;;;4973763;28;82416;-74
2021/01/15 05:30:23;;;;;;;31.23;16.30;;;-3274.50;71.00;;;;;;4986899;28;83028;-75
2021/01/15 05:32:54;;;;;;;34.40;17.50;;;-3274.50;71.00;;;;;;4986577;28;83585;-73
2021/01/15 05:35:41;;;;;;;32.33;16.60;;;-3274.50;71.00;;;;;;4986926;28;83819;-73
2021/01/15 05:38:07;;;;;;;36.93;16.60;;;-3274.50;70.90;;;;;;4968957;28;83641;-74
2021/01/15 05:40:38;;;;;;;32.20;17.63;;;-3274.40;71.00;;;;;;4968394;28;83879;-72
2021/01/15 05:43:04;;;;;;;31.50;16.17;;;-3274.50;71.00;;;;;;4969264;28;85185;-74
2021/01/15 05:45:31;;;;;;;31.17;16.00;;;-3274.40;70.70;;;;;;4986935;28;82542;-74
2021/01/15 05:47:57;;;;;;;34.20;21.70;;;-3274.30;70.60;;;;;;4970465;28;84440;-76
2021/01/15 05:50:39;;;;;;;30.63;15.43;;;-3274.30;70.70;;;;;;4988766;28;83771;-76
2021/01/15 05:53:05;;;;;;;33.60;18.57;;;-3274.20;70.80;;;;;;4972829;28;84105;-75
2021/01/15 05:55:31;;;;;;;33.70;16.73;;;-3274.10;70.80;;;;;;4973803;28;83878;-76
2021/01/15 05:58:10;;;;;;;29.67;16.17;;;-3274.10;70.90;;;;;;4994572;28;82504;-75
2021/01/15 06:00:38;;;;;;;30.03;16.37;;;-3274.10;71.10;;;;;;4973706;28;82574;-75
2021/01/15 06:03:07;;;;;;;36.57;18.83;;;-3274.00;71.10;;;;;;4973313;28;83512;-76
2021/01/15 06:05:35;;;;;;;27.27;16.40;;;-3274.00;71.30;;;;;;4969942;28;83872;-76
2021/01/15 06:08:02;;;;;;;33.97;17.43;;;-3274.10;71.40;;;;;;4970112;28;82304;-76
2021/01/15 06:10:40;;;;;;;32.10;16.80;;;-3274.10;71.40;;;;;;4953933;28;83879;-76
2021/01/15 06:13:09;;;;;;;30.43;16.83;;;-3274.10;71.40;;;;;;4989087;28;82773;-76
2021/01/15 06:15:47;;;;;;;32.60;15.90;;;-3274.10;71.50;;;;;;4970921;28;84669;-75
2021/01/15 06:18:18;;;;;;;31.67;16.60;;;-3274.20;71.60;;;;;;4957694;28;85555;-75
2021/01/15 06:20:45;;;;;;;28.73;16.17;;;-3274.20;71.60;;;;;;4992615;28;83897;-75
2021/01/15 06:23:13;;;;;;;29.57;15.33;;;-3274.30;71.50;;;;;;4993392;28;82510;-75
2021/01/15 06:25:55;;;;;;;28.47;14.97;;;-3274.30;71.30;;;;;;4990367;28;82634;-75
2021/01/15 06:28:32;;;;;;;30.60;14.20;;;-3274.30;71.10;;;;;;4971170;28;84516;-75
2021/01/15 06:31:02;;;;;;;28.27;14.30;;;-3274.20;71.10;;;;;;4971799;28;82943;-75
2021/01/15 06:33:28;;;;;;;25.13;14.37;;;-3274.20;71.10;;;;;;4951716;28;83715;-71
2021/01/15 06:35:54;;;;;;;31.33;15.13;;;-3274.10;71.20;;;;;;4983245;28;84110;-70
2021/01/15 06:38:28;;;;;;;31.07;16.03;;;-3274.10;71.30;;;;;;4965389;28;83824;-69
2021/01/15 06:40:58;;;;;;;26.07;14.17;;;-3274.10;71.30;;;;;;4957672;28;84092;-70
2021/01/15 06:43:29;;;;;;;28.43;16.30;;;-3274.10;71.30;;;;;;4970289;28;83172;-69
2021/01/15 06:46:00;;;;;;;29.13;14.67;;;-3274.20;71.40;;;;;;4953093;28;84427;-69
2021/01/15 06:48:33;;;;;;;28.13;14.40;;;-3274.20;71.40;;;;;;4955124;28;83708;-70
2021/01/15 06:51:00;;;;;;;23.95;14.30;;;-3274.30;71.50;;;;;;4954672;28;85436;-69
2021/01/15 06:53:31;;;;;;;28.13;15.67;;;-3274.30;71.40;;;;;;4954240;28;83836;-69
2021/01/15 06:56:02;;;;;;;28.67;13.10;;;-3274.30;71.40;;;;;;4955454;28;84285;-69
2021/01/15 06:58:53;;;;;;;29.10;14.53;;;-3274.30;71.40;;;;;;4958331;28;84613;-72
2021/01/15 07:01:21;;;;;;;27.20;13.93;;;-3274.40;71.50;;;;;;4955934;28;84450;-71
2021/01/15 07:04:18;;;;;;;30.90;16.13;;;-3274.30;71.50;;;;;;4956141;28;84960;-70
2021/01/15 07:07:17;;;;;;;34.53;16.53;;;-3274.40;71.40;;;;;;4953178;28;84122;-70
2021/01/15 07:09:47;;;;;;;28.13;15.77;;;-3274.40;71.30;;;;;;4971475;28;84321;-70
2021/01/15 07:12:14;;;;;;;31.60;16.63;;;-3274.40;71.20;;;;;;4959972;28;84818;-71
2021/01/15 07:14:51;;;;;;;32.50;16.77;;;-3274.50;71.10;;;;;;4961419;28;85354;-70
2021/01/15 07:17:35;;;;;;;35.27;16.93;;;-3274.50;71.10;;;;;;4982874;28;85149;-70
2021/01/15 07:20:03;;;;;;;;;;;-3274.40;71.20;;;;;;4986275;28;83993;-70
2021/01/15 07:22:46;;;;;;;33.03;16.67;;;-3274.30;71.10;;;;;;4974024;28;75787;-70
2021/01/15 07:25:12;;;;;;;34.70;17.17;;;-3274.30;71.50;;;;;;4964509;28;83808;-69
2021/01/15 07:27:39;;;;;;;32.13;16.13;;;-3274.30;71.40;;;;;;4963397;28;85545;-69
2021/01/15 07:30:15;;;;;;;33.33;16.17;;;-3274.30;71.50;;;;;;4959503;28;83281;-69
2021/01/15 07:32:46;;;;;;;34.23;16.97;;;-3274.40;71.60;;;;;;4960868;28;85729;-69
2021/01/15 07:35:16;;;;;;;44.07;18.57;;;-3274.40;71.60;;;;;;4962479;28;85348;-69
2021/01/15 07:37:42;;;;;;;39.50;18.20;;;-3274.40;71.70;;;;;;4959989;28;84256;-70
2021/01/15 07:40:14;;;;;;;33.47;17.77;;;-3274.40;71.70;;;;;;4961132;28;84773;-69
2021/01/15 07:42:47;;;;;;;36.47;17.07;;;-3274.40;71.60;;;;;;4957143;28;83369;-69
2021/01/15 07:45:27;;;;;;;33.92;17.15;;;-3274.50;71.70;;;;;;4953977;28;83529;-69
2021/01/15 07:48:15;;;;;;;37.80;18.17;;;-3274.60;71.70;;;;;;4951404;28;84067;-69
2021/01/15 07:50:44;;;;;;;36.17;17.07;;;-3274.60;71.60;;;;;;4959372;28;84123;-69
2021/01/15 07:53:15;;;;;;;37.47;18.97;;;-3274.60;71.30;;;;;;4955172;28;84856;-69
2021/01/15 07:55:56;;;;;;;36.80;17.93;;;-3274.60;71.20;;;;;;4956328;28;85282;-69
2021/01/15 07:58:38;;;;;;;47.83;20.37;;;-3274.50;71.00;;;;;;4981038;28;83160;-69
2021/01/15 08:01:08;;;;;;;51.37;21.73;;;-3274.60;71.00;;;;;;4980596;28;83849;-69
2021/01/15 08:03:43;;;;;;;48.33;21.87;;;-3274.60;70.70;;;;;;4962327;28;83078;-69
2021/01/15 08:06:11;;;;;;;47.90;21.63;;;-3274.50;70.70;;;;;;4957984;28;84923;-70
2021/01/15 08:08:56;;;;;;;41.90;21.07;;;-3274.50;70.60;;;;;;4957645;28;83855;-70
2021/01/15 08:11:23;;;;;;;40.53;20.07;;;-3274.60;70.50;;;;;;4956986;28;85041;-70
2021/01/15 08:13:49;;;;;;;41.90;19.93;;;-3274.60;70.40;;;;;;4960616;28;85157;-69
2021/01/15 08:16:15;;;;;;;39.57;19.83;;;-3274.60;70.30;;;;;;4961116;28;83403;-69
2021/01/15 08:18:43;;;;;;;39.70;19.60;;;-3274.70;69.80;;;;;;4963439;28;84678;-70
2021/01/15 08:21:09;;;;;;;38.90;18.43;;;-3274.70;69.60;;;;;;4969249;28;84209;-70
2021/01/15 08:23:35;;;;;;;39.47;16.03;;;-3274.70;69.50;;;;;;4962996;28;84357;-70
2021/01/15 08:26:24;;;;;;;35.10;14.93;;;-3274.70;69.60;;;;;;4960623;28;83802;-70
2021/01/15 08:28:50;;;;;;;34.17;15.37;;;-3274.70;69.50;;;;;;4944836;28;83768;-68
2021/01/15 08:31:21;;;;;;;33.70;13.93;;;-3274.60;69.60;;;;;;4963798;28;83932;-69
2021/01/15 08:33:47;;;;;;;25.53;12.33;;;-3274.60;69.80;;;;;;4961223;28;84407;-72
2021/01/15 08:36:14;;;;;;;26.07;13.47;;;-3274.60;70.00;;;;;;4975274;28;84293;-62
2021/01/15 08:38:40;;;;;;;32.43;14.50;;;-3274.70;70.10;;;;;;4956694;28;85637;-61
2021/01/15 08:41:23;;;;;;;26.60;13.93;;;-3274.80;70.20;;;;;;4957198;28;83902;-63
2021/01/15 08:43:53;;;;;;;33.47;15.25;;;-3275.00;70.00;;;;;;4956991;28;85346;-63
2021/01/15 08:46:20;;;;;;;39.43;15.87;;;-3275.30;69.80;;;;;;4974447;28;84735;-69
2021/01/15 08:48:47;;;;;;;25.87;14.93;;;-3275.50;69.20;;;;;;4957558;28;84185;-67
2021/01/15 08:51:19;;;;;;;30.33;15.17;;;-3275.80;68.70;;;;;;4975149;28;84186;-64
2021/01/15 08:54:04;;;;;;;34.97;16.50;;;-3275.90;68.30;;;;;;4956467;28;85854;-65
2021/01/15 08:56:41;;;;;;;30.47;16.73;;;-3276.10;68.00;;;;;;4954961;28;86021;-65
2021/01/15 08:59:12;;;;;;;30.93;15.73;;;-3276.40;67.80;;;;;;4974860;28;83672;-63
2021/01/15 09:01:40;;;;;;;33.87;16.27;;;-3276.70;67.30;;;;;;4955485;28;83702;-67
2021/01/15 09:04:13;;;;;;;33.67;17.80;;;0.00;67.00;;;;;;4973924;28;83849;-64
2021/01/15 09:06:40;;;;;;;31.75;16.63;;;0.20;66.50;;;;;;4956356;28;84480;-64
2021/01/15 09:09:08;;;;;;;31.53;17.03;;;0.40;66.10;;;;;;4955355;28;84662;-66
2021/01/15 09:11:37;;;;;;;34.93;16.93;;;0.40;65.20;;;;;;4957501;28;84001;-66
2021/01/15 09:14:07;;;;;;;36.73;16.67;;;0.40;64.90;;;;;;4957124;28;83216;-64
2021/01/15 09:16:34;;;;;;;28.67;15.67;;;0.50;65.10;;;;;;4957784;28;84931;-63
2021/01/15 09:19:08;;;;;;;35.23;16.30;;;0.50;65.00;;;;;;4975052;28;82857;-65
2021/01/15 09:22:07;;;;;;;28.23;15.27;;;0.80;65.00;;;;;;4974001;28;84629;-64
2021/01/15 09:24:34;;;;;;;31.30;15.50;;;1.10;64.30;;;;;;4955410;28;85677;-63
2021/01/15 09:27:01;;;;;;;29.47;15.03;;;1.40;63.40;;;;;;4973679;28;84768;-66
2021/01/15 09:29:28;;;;;;;29.40;15.60;;;1.60;63.10;;;;;;4972634;28;85799;-65
2021/01/15 09:31:54;;;;;;;33.90;15.40;;;1.70;63.10;;;;;;4973138;28;84467;-63
2021/01/15 09:34:21;;;;;;;28.97;14.87;;;1.70;63.20;;;;;;4972836;28;83399;-61
2021/01/15 09:36:49;;;;;;;28.07;13.83;;;1.90;63.00;;;;;;4970727;28;84478;-62
2021/01/15 09:39:18;;;;;;;27.00;15.00;;;2.20;62.20;;;;;;4971181;28;83372;-64
2021/01/15 09:41:49;;;;;;;29.17;15.43;;;2.60;61.50;;;;;;4954044;28;85611;-62
2021/01/15 09:44:16;;;;;;;31.75;16.17;;;2.90;60.30;;;;;;4952554;28;84281;-65
2021/01/15 09:46:43;;;;;;;32.72;15.77;;;3.10;60.00;;;;;;4970684;28;83830;-63
2021/01/15 09:49:09;;;;;;;26.80;15.02;;;3.40;60.10;;;;;;4954581;28;86494;-65
2021/01/15 09:51:35;;;;;;;33.33;17.55;;;3.90;59.10;;;;;;4953774;28;83907;-68
2021/01/15 09:54:01;;;;;;;34.30;15.77;;;4.50;57.30;;;;;;4972091;28;83582;-65
2021/01/15 09:56:33;;;;;;;30.58;17.30;;;5.10;55.80;;;;;;4973284;28;83544;-62
2021/01/15 09:59:00;;;;;;;29.75;15.52;;;5.80;53.60;;;;;;4956915;28;83982;-63
2021/01/15 10:01:27;;;;;;;30.17;15.90;;;6.30;52.60;;;;;;4957091;28;83814;-69
2021/01/15 10:03:55;;;;;;;28.88;15.55;;;6.50;51.60;;;;;;4956905;28;85570;-67
2021/01/15 10:06:22;;;;;;;27.17;15.50;;;6.80;51.20;;;;;;4954525;28;85007;-63
2021/01/15 10:08:48;;;;;;;26.48;15.52;;;7.20;50.60;;;;;;4972054;28;84478;-68
2021/01/15 10:11:23;;;;;;;27.17;15.23;;;7.50;49.70;;;;;;4946033;28;83961;-67
2021/01/15 10:13:49;;;;;;;24.65;13.57;;;7.80;48.90;;;;;;4945151;28;83810;-63
2021/01/15 10:16:15;;;;;;;25.33;12.75;;;8.40;48.10;;;;;;4940328;28;84268;-61
2021/01/15 10:18:41;;;;;;;31.65;16.27;;;8.40;48.30;;;;;;4957371;28;83324;-62
2021/01/15 10:21:08;;;;;;;47.92;19.52;;;8.60;47.70;;;;;;4942578;28;84313;-62
2021/01/15 10:23:35;;;;;;;33.78;18.67;;;8.70;46.30;;;;;;4957567;28;84613;-62
2021/01/15 10:26:01;;;;;;;33.58;17.50;;;8.90;45.40;;;;;;4943871;28;84540;-64
2021/01/15 10:28:27;;;;;;;32.65;17.63;;;9.40;44.20;;;;;;4944324;28;84299;-63
2021/01/15 10:30:53;;;;;;;32.67;18.33;;;10.20;42.70;;;;;;4957392;28;83786;-63
2021/01/15 10:33:23;;;;;;;35.22;15.80;;;10.70;41.40;;;;;;4958703;28;83884;-62
2021/01/15 10:35:50;;;;;;;32.97;17.73;;;10.60;41.40;;;;;;4960058;28;83417;-66
2021/01/15 10:38:16;;;;;;;34.78;17.30;;;10.60;41.60;;;;;;4961241;28;84769;-65
2021/01/15 10:40:43;;;;;;;32.55;17.88;;;11.00;40.70;;;;;;4964361;28;85657;-65
2021/01/15 10:43:09;;;;;;;30.83;16.88;;;11.60;39.60;;;;;;4963483;28;83409;-63
2021/01/15 10:45:35;;;;;;;30.98;16.33;;;12.90;37.70;;;;;;4963947;28;83510;-62
2021/01/15 10:48:03;;;;;;;26.80;16.67;;;14.20;35.30;;;;;;4941740;28;84047;-68
2021/01/15 10:50:30;;;;;;;26.85;16.10;;;14.90;34.20;;;;;;4948394;28;84061;-64
2021/01/15 10:52:56;;;;;;;28.17;15.57;;;15.40;33.50;;;;;;4946510;28;85815;-64
2021/01/15 10:55:22;;;;;;;24.55;14.50;;;16.10;32.50;;;;;;4941471;28;85443;-62
2021/01/15 10:57:48;;;;;;;22.02;14.52;;;16.50;31.90;;;;;;4948701;28;85170;-64
2021/01/15 11:00:16;;;;;;;24.83;15.05;;;16.90;31.50;;;;;;4966378;28;83890;-63
2021/01/15 11:02:46;;;;;;;21.73;13.93;;;17.90;30.40;;;;;;4946689;28;86122;-68
2021/01/15 11:05:12;;;;;;;23.77;12.50;;;17.50;30.60;;;;;;4942809;28;85296;-62
2021/01/15 11:07:38;;;;;;;18.27;12.85;;;16.90;31.60;;;;;;4941543;28;85821;-62
2021/01/15 11:10:06;;;;;;;20.67;13.65;;;16.70;31.90;;;;;;4938641;28;83867;-62
2021/01/15 11:12:32;;;;;;;18.73;12.57;;;17.50;31.60;;;;;;4950989;28;84735;-62
2021/01/15 11:14:57;;;;;;;25.60;13.57;;;19.30;29.40;;;;;;4970879;28;84279;-62
2021/01/15 11:17:23;;;;;;;22.75;13.27;;;20.40;27.90;;;;;;4935146;28;86159;-63
2021/01/15 11:19:50;;;;;;;21.08;11.65;;;21.30;27.20;;;;;;4951195;28;83163;-65
2021/01/15 11:22:16;;;;;;;22.35;11.73;;;21.90;26.70;;;;;;4945328;28;84557;-61
2021/01/15 11:24:41;;;;;;;18.92;11.38;;;22.30;26.40;;;;;;4960781;28;84431;-64
2021/01/15 11:27:07;;;;;;;18.08;10.90;;;22.40;26.20;;;;;;4948074;28;86408;-62
2021/01/15 11:29:33;;;;;;;21.17;13.80;;;22.10;26.50;;;;;;4954302;28;83985;-63
2021/01/15 11:31:59;;;;;;;20.52;13.48;;;22.10;26.60;;;;;;4943598;28;85821;-64
2021/01/15 11:34:25;;;;;;;18.23;13.10;;;22.60;26.30;;;;;;4961834;28;84494;-63
2021/01/15 11:36:51;;;;;;;22.10;14.70;;;22.40;26.30;;;;;;4964379;28;84039;-64
2021/01/15 11:39:17;;;;;;;22.35;15.35;;;21.40;27.30;;;;;;4959611;28;84749;-65
2021/01/15 11:41:43;;;;;;;24.95;15.60;;;20.40;28.50;;;;;;4939933;28;83966;-62
2021/01/15 11:44:13;;;;;;;24.65;15.07;;;20.40;29.10;;;;;;4941807;28;84712;-64
2021/01/15 11:46:39;;;;;;;21.85;14.40;;;21.00;28.50;;;;;;4955670;28;84431;-63
2021/01/15 11:49:05;;;;;;;20.73;13.60;;;20.90;28.70;;;;;;4940073;28;84895;-63
2021/01/15 11:51:32;;;;;;;19.85;12.63;;;20.60;28.90;;;;;;4958607;28;83829;-63
2021/01/15 11:53:58;;;;;;;23.50;13.68;;;20.90;28.70;;;;;;4943333;28;85414;-64
2021/01/15 11:56:24;;;;;;;19.80;13.48;;;22.10;27.40;;;;;;4946515;28;83445;-65
2021/01/15 11:58:50;;;;;;;18.95;12.70;;;22.70;26.70;;;;;;4962098;28;84135;-62
2021/01/15 12:01:16;;;;;;;20.98;13.93;;;22.90;26.50;;;;;;4944552;28;84254;-63
2021/01/15 12:03:43;;;;;;;21.77;14.35;;;22.60;26.50;;;;;;4938521;28;83880;-64
2021/01/15 12:06:11;;;;;;;25.35;14.35;;;22.50;26.40;;;;;;4938898;28;84208;-63
2021/01/15 12:08:37;;;;;;;28.77;14.45;;;23.00;26.10;;;;;;4952608;28;84339;-68
2021/01/15 12:11:04;;;;;;;23.88;14.43;;;22.40;26.70;;;;;;4965518;28;84787;-63
2021/01/15 12:13:30;;;;;;;21.67;13.30;;;22.20;26.70;;;;;;4953994;28;87189;-63
2021/01/15 12:15:57;;;;;;;23.45;13.60;;;21.70;27.50;;;;;;4971854;28;83968;-66
2021/01/15 12:18:24;;;;;;;23.40;14.20;;;22.80;26.70;;;;;;4957075;28;85491;-67
2021/01/15 12:20:50;;;;;;;25.23;14.93;;;23.90;25.60;;;;;;4953669;28;84696;-62
2021/01/15 12:23:18;;;;;;;21.13;13.43;;;24.30;25.30;;;;;;4952662;28;84577;-65
2021/01/15 12:25:44;;;;;;;22.45;13.90;;;23.90;25.60;;;;;;4954160;28;84076;-67
2021/01/15 12:28:16;;;;;;;21.67;13.70;;;23.20;26.50;;;;;;4954042;28;84493;-64